sensor_id;sensor_type;location;lat;lon;timestamp;pressure;altitude;pressure_sealevel;temperature;humidity
27304;BME280;14791;52.392;13.092;2023-12-28T00:00:53;100660.35;;;11.13;52.98
27304;BME280;14791;52.392;13.092;2023-12-28T00:03:22;100652.45;;;11.12;53.14
27304;BME280;14791;52.392;13.092;2023-12-28T00:05:51;100650.63;;;11.12;53.19
27304;BME280;14791;52.392;13.092;2023-12-28T00:08:20;100632.89;;;11.11;53.35
27304;BME280;14791;52.392;13.092;2023-12-28T00:10:49;100623.63;;;11.10;53.52
27304;BME280;14791;52.392;13.092;2023-12-28T00:13:18;100619.04;;;11.12;53.56
27304;BME280;14791;52.392;13.092;2023-12-28T00:15:47;100621.23;;;11.12;53.60
27304;BME280;14791;52.392;13.092;2023-12-28T00:18:16;100617.58;;;11.13;53.59
27304;BME280;14791;52.392;13.092;2023-12-28T00:20:45;100624.66;;;11.14;53.58
27304;BME280;14791;52.392;13.092;2023-12-28T00:23:14;100619.31;;;11.14;53.63
27304;BME280;14791;52.392;13.092;2023-12-28T00:25:42;100621.98;;;11.14;53.65
27304;BME280;14791;52.392;13.092;2023-12-28T00:28:11;100611.30;;;11.14;53.62
27304;BME280;14791;52.392;13.092;2023-12-28T00:30:40;100607.65;;;11.15;53.62
27304;BME280;14791;52.392;13.092;2023-12-28T00:33:09;100605.86;;;11.16;53.63
27304;BME280;14791;52.392;13.092;2023-12-28T00:35:38;100604.13;;;11.15;53.68
27304;BME280;14791;52.392;13.092;2023-12-28T00:38:07;100605.47;;;11.15;53.65
27304;BME280;14791;52.392;13.092;2023-12-28T00:40:36;100607.65;;;11.15;53.67
27304;BME280;14791;52.392;13.092;2023-12-28T00:43:04;100600.02;;;11.16;53.64
27304;BME280;14791;52.392;13.092;2023-12-28T00:45:33;100615.48;;;11.18;53.64
27304;BME280;14791;52.392;13.092;2023-12-28T00:48:02;100613.18;;;11.19;53.63
27304;BME280;14791;52.392;13.092;2023-12-28T00:50:31;100619.29;;;11.21;53.59
27304;BME280;14791;52.392;13.092;2023-12-28T00:53:00;100604.01;;;11.23;53.56
27304;BME280;14791;52.392;13.092;2023-12-28T00:55:29;100605.71;;;11.24;53.54
27304;BME280;14791;52.392;13.092;2023-12-28T00:57:58;100618.13;;;11.25;53.50
27304;BME280;14791;52.392;13.092;2023-12-28T01:00:28;100622.88;;;11.27;53.43
27304;BME280;14791;52.392;13.092;2023-12-28T01:02:57;100617.92;;;11.28;53.38
27304;BME280;14791;52.392;13.092;2023-12-28T01:05:26;100638.73;;;11.31;53.27
27304;BME280;14791;52.392;13.092;2023-12-28T01:07:56;100638.73;;;11.31;53.27
27304;BME280;14791;52.392;13.092;2023-12-28T01:10:25;100622.78;;;11.29;53.23
27304;BME280;14791;52.392;13.092;2023-12-28T01:12:53;100626.22;;;11.31;53.22
27304;BME280;14791;52.392;13.092;2023-12-28T01:15:22;100624.39;;;11.32;53.16
27304;BME280;14791;52.392;13.092;2023-12-28T01:17:51;100627.92;;;11.32;53.10
27304;BME280;14791;52.392;13.092;2023-12-28T01:20:20;100620.78;;;11.33;53.00
27304;BME280;14791;52.392;13.092;2023-12-28T01:22:49;100626.49;;;11.34;52.89
27304;BME280;14791;52.392;13.092;2023-12-28T01:25:18;100612.27;;;11.33;52.85
27304;BME280;14791;52.392;13.092;2023-12-28T01:27:47;100612.27;;;11.33;52.80
27304;BME280;14791;52.392;13.092;2023-12-28T01:30:16;100620.78;;;11.33;52.76
27304;BME280;14791;52.392;13.092;2023-12-28T01:32:45;100619.89;;;11.32;52.75
27304;BME280;14791;52.392;13.092;2023-12-28T01:35:15;100621.72;;;11.32;52.76
27304;BME280;14791;52.392;13.092;2023-12-28T01:37:44;100616.37;;;11.32;52.83
27304;BME280;14791;52.392;13.092;2023-12-28T01:40:13;100616.37;;;11.32;52.82
27304;BME280;14791;52.392;13.092;2023-12-28T01:42:45;100619.81;;;11.34;52.84
27304;BME280;14791;52.392;13.092;2023-12-28T01:45:14;100605.01;;;11.35;52.80
27304;BME280;14791;52.392;13.092;2023-12-28T01:47:43;100590.94;;;11.39;52.78
27304;BME280;14791;52.392;13.092;2023-12-28T01:50:13;100579.08;;;11.43;52.74
27304;BME280;14791;52.392;13.092;2023-12-28T01:52:42;100569.28;;;11.49;52.67
27304;BME280;14791;52.392;13.092;2023-12-28T01:55:11;100557.82;;;11.54;52.60
27304;BME280;14791;52.392;13.092;2023-12-28T01:57:41;100546.31;;;11.59;52.50
27304;BME280;14791;52.392;13.092;2023-12-28T02:00:11;100543.20;;;11.65;52.35
27304;BME280;14791;52.392;13.092;2023-12-28T02:02:40;100530.00;;;11.69;52.25
27304;BME280;14791;52.392;13.092;2023-12-28T02:05:11;100536.86;;;11.74;52.14
27304;BME280;14791;52.392;13.092;2023-12-28T02:07:43;100565.97;;;11.78;52.08
27304;BME280;14791;52.392;13.092;2023-12-28T02:10:13;100572.34;;;11.83;51.91
27304;BME280;14791;52.392;13.092;2023-12-28T02:12:42;100587.98;;;11.89;51.78
27304;BME280;14791;52.392;13.092;2023-12-28T02:15:12;100597.30;;;11.96;51.59
27304;BME280;14791;52.392;13.092;2023-12-28T02:17:55;100588.86;;;12.02;51.53
27304;BME280;14791;52.392;13.092;2023-12-28T02:20:26;100600.36;;;12.10;51.46
27304;BME280;14791;52.392;13.092;2023-12-28T02:22:57;100604.64;;;12.12;51.36
27304;BME280;14791;52.392;13.092;2023-12-28T02:25:28;100604.49;;;12.21;51.24
27304;BME280;14791;52.392;13.092;2023-12-28T02:27:56;100614.75;;;12.27;51.03
27304;BME280;14791;52.392;13.092;2023-12-28T02:30:26;100611.16;;;12.34;50.94
27304;BME280;14791;52.392;13.092;2023-12-28T02:35:54;100606.53;;;12.49;50.68
27304;BME280;14791;52.392;13.092;2023-12-28T02:38:18;100594.05;;;12.55;50.64
27304;BME280;14791;52.392;13.092;2023-12-28T02:40:49;100595.41;;;12.61;50.53
27304;BME280;14791;52.392;13.092;2023-12-28T02:43:19;100584.98;;;12.69;50.29
27304;BME280;14791;52.392;13.092;2023-12-28T02:45:48;100596.37;;;12.78;50.21
27304;BME280;14791;52.392;13.092;2023-12-28T02:48:17;100604.59;;;12.88;49.89
27304;BME280;14791;52.392;13.092;2023-12-28T02:50:46;100601.97;;;12.93;49.68
27304;BME280;14791;52.392;13.092;2023-12-28T02:53:16;100601.89;;;13.01;49.44
27304;BME280;14791;52.392;13.092;2023-12-28T02:55:47;100587.05;;;13.08;49.33
27304;BME280;14791;52.392;13.092;2023-12-28T02:58:16;100567.81;;;13.14;49.06
27304;BME280;14791;52.392;13.092;2023-12-28T03:00:44;100576.25;;;13.20;49.07
27304;BME280;14791;52.392;13.092;2023-12-28T03:03:13;100579.37;;;13.27;48.77
27304;BME280;14791;52.392;13.092;2023-12-28T03:05:42;100586.09;;;13.33;48.71
27304;BME280;14791;52.392;13.092;2023-12-28T03:08:11;100588.81;;;13.38;48.47
27304;BME280;14791;52.392;13.092;2023-12-28T03:10:42;100582.61;;;13.44;48.25
27304;BME280;14791;52.392;13.092;2023-12-28T03:13:12;100583.60;;;13.48;48.19
27304;BME280;14791;52.392;13.092;2023-12-28T03:15:40;100587.98;;;13.55;48.06
27304;BME280;14791;52.392;13.092;2023-12-28T03:18:13;100585.34;;;13.60;48.05
27304;BME280;14791;52.392;13.092;2023-12-28T03:20:43;100591.70;;;13.65;47.70
27304;BME280;14791;52.392;13.092;2023-12-28T03:23:12;100592.20;;;13.70;47.66
27304;BME280;14791;52.392;13.092;2023-12-28T03:25:42;100584.64;;;13.75;47.52
27304;BME280;14791;52.392;13.092;2023-12-28T03:28:11;100574.40;;;13.80;47.42
27304;BME280;14791;52.392;13.092;2023-12-28T03:30:40;100588.31;;;13.86;47.51
27304;BME280;14791;52.392;13.092;2023-12-28T03:33:09;100606.40;;;13.89;47.69
27304;BME280;14791;52.392;13.092;2023-12-28T03:35:39;100588.09;;;13.89;47.43
27304;BME280;14791;52.392;13.092;2023-12-28T03:38:08;100593.82;;;13.84;47.55
27304;BME280;14791;52.392;13.092;2023-12-28T03:40:37;100603.78;;;13.76;47.56
27304;BME280;14791;52.392;13.092;2023-12-28T03:43:06;100590.26;;;13.72;47.53
27304;BME280;14791;52.392;13.092;2023-12-28T03:45:35;100611.59;;;13.68;47.68
27304;BME280;14791;52.392;13.092;2023-12-28T03:48:04;100613.53;;;13.66;47.75
27304;BME280;14791;52.392;13.092;2023-12-28T03:50:34;100617.30;;;13.64;47.78
27304;BME280;14791;52.392;13.092;2023-12-28T03:53:03;100612.18;;;13.60;47.79
27304;BME280;14791;52.392;13.092;2023-12-28T03:55:34;100609.59;;;13.59;47.72
27304;BME280;14791;52.392;13.092;2023-12-28T03:58:04;100607.41;;;13.58;47.80
27304;BME280;14791;52.392;13.092;2023-12-28T04:00:35;100611.79;;;13.59;47.87
27304;BME280;14791;52.392;13.092;2023-12-28T04:03:04;100609.75;;;13.63;47.90
27304;BME280;14791;52.392;13.092;2023-12-28T04:05:33;100603.17;;;13.67;47.82
27304;BME280;14791;52.392;13.092;2023-12-28T04:08:05;100608.30;;;13.70;47.84
27304;BME280;14791;52.392;13.092;2023-12-28T04:10:35;100604.42;;;13.74;47.73
27304;BME280;14791;52.392;13.092;2023-12-28T04:13:07;100611.23;;;13.78;47.74
27304;BME280;14791;52.392;13.092;2023-12-28T04:15:41;100611.88;;;13.82;47.72
27304;BME280;14791;52.392;13.092;2023-12-28T04:18:11;100619.19;;;13.86;47.67
27304;BME280;14791;52.392;13.092;2023-12-28T04:20:43;100614.95;;;13.89;47.54
27304;BME280;14791;52.392;13.092;2023-12-28T04:23:15;100636.04;;;13.93;47.46
27304;BME280;14791;52.392;13.092;2023-12-28T04:25:44;100628.73;;;13.95;47.43
27304;BME280;14791;52.392;13.092;2023-12-28T04:28:13;100619.22;;;13.97;47.37
27304;BME280;14791;52.392;13.092;2023-12-28T04:30:44;100612.27;;;14.00;47.34
27304;BME280;14791;52.392;13.092;2023-12-28T04:33:13;100628.86;;;14.05;47.26
27304;BME280;14791;52.392;13.092;2023-12-28T04:35:43;100630.84;;;14.09;47.22
27304;BME280;14791;52.392;13.092;2023-12-28T04:38:12;100628.40;;;14.11;47.21
27304;BME280;14791;52.392;13.092;2023-12-28T04:40:42;100627.19;;;14.15;47.21
27304;BME280;14791;52.392;13.092;2023-12-28T04:43:10;100623.41;;;14.18;47.18
27304;BME280;14791;52.392;13.092;2023-12-28T04:45:39;100627.68;;;14.20;47.02
27304;BME280;14791;52.392;13.092;2023-12-28T04:48:08;100621.21;;;14.23;47.00
27304;BME280;14791;52.392;13.092;2023-12-28T04:50:37;100630.86;;;14.25;46.96
27304;BME280;14791;52.392;13.092;2023-12-28T04:53:06;100629.87;;;14.26;46.89
27304;BME280;14791;52.392;13.092;2023-12-28T04:55:37;100631.95;;;14.29;46.84
27304;BME280;14791;52.392;13.092;2023-12-28T04:58:07;100633.19;;;14.30;46.84
27304;BME280;14791;52.392;13.092;2023-12-28T05:00:36;100630.84;;;14.31;46.79
27304;BME280;14791;52.392;13.092;2023-12-28T05:03:05;100625.86;;;14.32;46.73
27304;BME280;14791;52.392;13.092;2023-12-28T05:05:34;100645.52;;;14.33;46.72
27304;BME280;14791;52.392;13.092;2023-12-28T05:08:04;100651.63;;;14.35;46.76
27304;BME280;14791;52.392;13.092;2023-12-28T05:10:33;100656.02;;;14.36;46.79
27304;BME280;14791;52.392;13.092;2023-12-28T05:13:01;100659.09;;;14.37;46.77
27304;BME280;14791;52.392;13.092;2023-12-28T05:15:30;100673.72;;;14.38;46.83
27304;BME280;14791;52.392;13.092;2023-12-28T05:18:00;100674.95;;;14.40;46.87
27304;BME280;14791;52.392;13.092;2023-12-28T05:20:28;100673.97;;;14.41;46.87
27304;BME280;14791;52.392;13.092;2023-12-28T05:22:59;100675.70;;;14.42;46.76
27304;BME280;14791;52.392;13.092;2023-12-28T05:25:28;100664.56;;;14.41;46.87
27304;BME280;14791;52.392;13.092;2023-12-28T05:27:57;100660.53;;;14.41;46.89
27304;BME280;14791;52.392;13.092;2023-12-28T05:30:25;100668.24;;;14.40;46.92
27304;BME280;14791;52.392;13.092;2023-12-28T05:32:56;100672.77;;;14.39;46.96
27304;BME280;14791;52.392;13.092;2023-12-28T05:35:25;100686.42;;;14.36;47.05
27304;BME280;14791;52.392;13.092;2023-12-28T05:37:54;100698.16;;;14.35;47.11
27304;BME280;14791;52.392;13.092;2023-12-28T05:40:23;100704.02;;;14.35;47.21
27304;BME280;14791;52.392;13.092;2023-12-28T05:42:52;100699.25;;;14.33;47.29
27304;BME280;14791;52.392;13.092;2023-12-28T05:45:20;100698.41;;;14.32;47.35
27304;BME280;14791;52.392;13.092;2023-12-28T05:47:49;100708.27;;;14.32;47.43
27304;BME280;14791;52.392;13.092;2023-12-28T05:50:18;100708.27;;;14.32;47.48
27304;BME280;14791;52.392;13.092;2023-12-28T05:52:47;100717.67;;;14.32;47.56
27304;BME280;14791;52.392;13.092;2023-12-28T05:55:16;100720.50;;;14.30;47.63
27304;BME280;14791;52.392;13.092;2023-12-28T05:57:45;100719.65;;;14.30;47.75
27304;BME280;14791;52.392;13.092;2023-12-28T06:00:16;100725.37;;;14.31;47.78
27304;BME280;14791;52.392;13.092;2023-12-28T06:02:45;100720.99;;;14.30;47.79
27304;BME280;14791;52.392;13.092;2023-12-28T06:05:14;100724.03;;;14.31;47.80
27304;BME280;14791;52.392;13.092;2023-12-28T06:07:43;100713.29;;;14.31;47.83
27304;BME280;14791;52.392;13.092;2023-12-28T06:10:12;100720.86;;;14.31;47.85
27304;BME280;14791;52.392;13.092;2023-12-28T06:12:41;100724.03;;;14.31;47.84
27304;BME280;14791;52.392;13.092;2023-12-28T06:15:10;100725.37;;;14.31;47.86
27304;BME280;14791;52.392;13.092;2023-12-28T06:17:39;100727.08;;;14.32;47.91
27304;BME280;14791;52.392;13.092;2023-12-28T06:20:09;100729.41;;;14.31;47.89
27304;BME280;14791;52.392;13.092;2023-12-28T06:22:38;100726.37;;;14.30;47.87
27304;BME280;14791;52.392;13.092;2023-12-28T06:25:07;100720.86;;;14.31;47.91
27304;BME280;14791;52.392;13.092;2023-12-28T06:27:37;100721.95;;;14.29;47.95
27304;BME280;14791;52.392;13.092;2023-12-28T06:30:06;100727.22;;;14.30;47.90
27304;BME280;14791;52.392;13.092;2023-12-28T06:32:35;100720.99;;;14.30;48.00
27304;BME280;14791;52.392;13.092;2023-12-28T06:35:05;100722.69;;;14.31;47.96
27304;BME280;14791;52.392;13.092;2023-12-28T06:37:34;100711.95;;;14.31;48.07
27304;BME280;14791;52.392;13.092;2023-12-28T06:40:04;100724.03;;;14.31;48.11
27304;BME280;14791;52.392;13.092;2023-12-28T06:42:33;100727.22;;;14.30;48.13
27304;BME280;14791;52.392;13.092;2023-12-28T06:45:01;100723.68;;;14.30;48.27
27304;BME280;14791;52.392;13.092;2023-12-28T06:47:30;100725.02;;;14.30;48.27
27304;BME280;14791;52.392;13.092;2023-12-28T06:49:59;100733.80;;;14.32;48.29
27304;BME280;14791;52.392;13.092;2023-12-28T06:52:29;100722.59;;;14.32;48.29
27304;BME280;14791;52.392;13.092;2023-12-28T06:54:59;100728.42;;;14.32;48.42
27304;BME280;14791;52.392;13.092;2023-12-28T06:57:28;100726.72;;;14.31;48.46
27304;BME280;14791;52.392;13.092;2023-12-28T06:59:57;100724.53;;;14.30;48.44
27304;BME280;14791;52.392;13.092;2023-12-28T07:02:27;100734.42;;;14.30;48.44
27304;BME280;14791;52.392;13.092;2023-12-28T07:04:56;100726.48;;;14.28;48.48
27304;BME280;14791;52.392;13.092;2023-12-28T07:07:25;100728.31;;;14.28;48.53
27304;BME280;14791;52.392;13.092;2023-12-28T07:09:54;100733.30;;;14.26;48.58
27304;BME280;14791;52.392;13.092;2023-12-28T07:12:24;100741.95;;;14.24;48.65
27304;BME280;14791;52.392;13.092;2023-12-28T07:14:53;100744.53;;;14.26;48.65
27304;BME280;14791;52.392;13.092;2023-12-28T07:17:24;100755.03;;;14.23;48.69
27304;BME280;14791;52.392;13.092;2023-12-28T07:19:55;100751.00;;;14.23;48.74
27304;BME280;14791;52.392;13.092;2023-12-28T07:22:24;100758.32;;;14.21;48.80
27304;BME280;14791;52.392;13.092;2023-12-28T07:24:55;100764.68;;;14.20;48.88
27304;BME280;14791;52.392;13.092;2023-12-28T07:27:25;100767.97;;;14.18;48.91
27304;BME280;14791;52.392;13.092;2023-12-28T07:29:54;100766.63;;;14.18;48.96
27304;BME280;14791;52.392;13.092;2023-12-28T07:32:23;100770.66;;;14.18;48.97
27304;BME280;14791;52.392;13.092;2023-12-28T07:34:54;100760.86;;;14.17;49.00
27304;BME280;14791;52.392;13.092;2023-12-28T07:37:23;100753.80;;;14.16;49.09
27304;BME280;14791;52.392;13.092;2023-12-28T07:39:52;100760.51;;;14.16;49.09
27304;BME280;14791;52.392;13.092;2023-12-28T07:42:21;100766.73;;;14.17;49.15
27304;BME280;14791;52.392;13.092;2023-12-28T07:44:50;100771.25;;;14.16;49.15
27304;BME280;14791;52.392;13.092;2023-12-28T07:47:19;100771.25;;;14.16;49.18
27304;BME280;14791;52.392;13.092;2023-12-28T07:49:49;100778.33;;;14.17;49.16
27304;BME280;14791;52.392;13.092;2023-12-28T07:52:18;100782.00;;;14.16;49.22
27304;BME280;14791;52.392;13.092;2023-12-28T07:54:47;100792.73;;;14.16;49.23
27304;BME280;14791;52.392;13.092;2023-12-28T07:57:16;100799.45;;;14.16;49.27
27304;BME280;14791;52.392;13.092;2023-12-28T07:59:45;100798.11;;;14.16;49.30
27304;BME280;14791;52.392;13.092;2023-12-28T08:02:14;100807.88;;;14.17;49.32
27304;BME280;14791;52.392;13.092;2023-12-28T08:04:45;100802.50;;;14.17;49.34
27304;BME280;14791;52.392;13.092;2023-12-28T08:07:14;100803.37;;;14.18;49.32
27304;BME280;14791;52.392;13.092;2023-12-28T08:09:43;100816.32;;;14.18;49.33
27304;BME280;14791;52.392;13.092;2023-12-28T08:12:12;100813.52;;;14.20;49.29
27304;BME280;14791;52.392;13.092;2023-12-28T08:14:43;100823.28;;;14.21;49.26
27304;BME280;14791;52.392;13.092;2023-12-28T08:17:13;100819.61;;;14.22;49.20
27304;BME280;14791;52.392;13.092;2023-12-28T08:19:42;100824.52;;;14.22;49.21
27304;BME280;14791;52.392;13.092;2023-12-28T08:22:11;100823.54;;;14.23;49.18
27304;BME280;14791;52.392;13.092;2023-12-28T08:24:41;100830.75;;;14.23;49.17
27304;BME280;14791;52.392;13.092;2023-12-28T08:27:10;100831.59;;;14.23;49.18
27304;BME280;14791;52.392;13.092;2023-12-28T08:29:40;100823.54;;;14.23;49.12
27304;BME280;14791;52.392;13.092;2023-12-28T08:32:13;100824.28;;;14.25;49.07
27304;BME280;14791;52.392;13.092;2023-12-28T08:34:42;100825.13;;;14.26;49.06
27304;BME280;14791;52.392;13.092;2023-12-28T08:37:13;100827.82;;;14.26;49.04
27304;BME280;14791;52.392;13.092;2023-12-28T08:39:43;100828.20;;;14.27;49.06
27304;BME280;14791;52.392;13.092;2023-12-28T08:42:12;100825.98;;;14.26;49.10
27304;BME280;14791;52.392;13.092;2023-12-28T08:44:43;100827.72;;;14.28;49.14
27304;BME280;14791;52.392;13.092;2023-12-28T08:47:12;100834.78;;;14.29;49.09
27304;BME280;14791;52.392;13.092;2023-12-28T08:49:43;100835.18;;;14.30;49.10
27304;BME280;14791;52.392;13.092;2023-12-28T08:52:12;100834.19;;;14.31;49.03
27304;BME280;14791;52.392;13.092;2023-12-28T08:54:41;100832.00;;;14.30;49.10
27304;BME280;14791;52.392;13.092;2023-12-28T08:57:11;100838.58;;;14.32;49.11
27304;BME280;14791;52.392;13.092;2023-12-28T08:59:40;100840.31;;;14.33;49.16
27304;BME280;14791;52.392;13.092;2023-12-28T09:02:09;100844.70;;;14.34;49.10
27304;BME280;14791;52.392;13.092;2023-12-28T09:04:39;100847.77;;;14.35;49.10
27304;BME280;14791;52.392;13.092;2023-12-28T09:07:08;100842.75;;;14.36;49.10
27304;BME280;14791;52.392;13.092;2023-12-28T09:09:37;100846.30;;;14.36;49.08
27304;BME280;14791;52.392;13.092;2023-12-28T09:12:08;100848.52;;;14.37;49.06
27304;BME280;14791;52.392;13.092;2023-12-28T09:14:37;100861.07;;;14.36;49.08
27304;BME280;14791;52.392;13.092;2023-12-28T09:17:06;100856.58;;;14.37;49.07
27304;BME280;14791;52.392;13.092;2023-12-28T09:19:35;100852.16;;;14.36;49.08
27304;BME280;14791;52.392;13.092;2023-12-28T09:22:04;100850.81;;;14.36;49.08
27304;BME280;14791;52.392;13.092;2023-12-28T09:24:33;100858.88;;;14.36;49.08
27304;BME280;14791;52.392;13.092;2023-12-28T09:27:03;100849.72;;;14.33;49.11
27304;BME280;14791;52.392;13.092;2023-12-28T09:29:33;100845.69;;;14.33;49.13
27304;BME280;14791;52.392;13.092;2023-12-28T09:32:04;100845.43;;;14.30;49.15
27304;BME280;14791;52.392;13.092;2023-12-28T09:34:35;100845.43;;;14.30;49.16
27304;BME280;14791;52.392;13.092;2023-12-28T09:37:04;100841.02;;;14.29;49.19
27304;BME280;14791;52.392;13.092;2023-12-28T09:39:36;100836.27;;;14.27;49.22
27304;BME280;14791;52.392;13.092;2023-12-28T09:42:09;100843.09;;;14.25;49.27
27304;BME280;14791;52.392;13.092;2023-12-28T09:44:38;100841.36;;;14.24;49.30
27304;BME280;14791;52.392;13.092;2023-12-28T09:47:10;100836.97;;;14.23;49.35
27304;BME280;14791;52.392;13.092;2023-12-28T09:49:41;100837.47;;;14.23;49.39
27304;BME280;14791;52.392;13.092;2023-12-28T09:52:10;100845.13;;;14.22;49.50
27304;BME280;14791;52.392;13.092;2023-12-28T09:54:39;100846.97;;;14.21;49.50
27304;BME280;14791;52.392;13.092;2023-12-28T09:57:11;100833.44;;;14.23;49.58
27304;BME280;14791;52.392;13.092;2023-12-28T09:59:40;100840.02;;;14.24;49.65
27304;BME280;14791;52.392;13.092;2023-12-28T10:02:10;100840.41;;;14.25;49.58
27304;BME280;14791;52.392;13.092;2023-12-28T10:04:39;100840.02;;;14.24;49.60
27304;BME280;14791;52.392;13.092;2023-12-28T10:07:08;100829.77;;;14.24;49.65
27304;BME280;14791;52.392;13.092;2023-12-28T10:09:38;100831.59;;;14.23;49.62
27304;BME280;14791;52.392;13.092;2023-12-28T10:12:07;100831.10;;;14.24;49.67
27304;BME280;14791;52.392;13.092;2023-12-28T10:14:36;100823.44;;;14.25;49.69
27304;BME280;14791;52.392;13.092;2023-12-28T10:17:07;100828.81;;;14.25;49.69
27304;BME280;14791;52.392;13.092;2023-12-28T10:19:40;100831.00;;;14.25;49.69
27304;BME280;14791;52.392;13.092;2023-12-28T10:22:09;100832.34;;;14.25;49.69
27304;BME280;14791;52.392;13.092;2023-12-28T10:24:45;100836.87;;;14.25;49.74
27304;BME280;14791;52.392;13.092;2023-12-28T10:27:14;100827.92;;;14.24;49.75
27304;BME280;14791;52.392;13.092;2023-12-28T10:29:44;100835.13;;;14.24;49.83
27304;BME280;14791;52.392;13.092;2023-12-28T10:32:14;100833.80;;;14.24;49.86
27304;BME280;14791;52.392;13.092;2023-12-28T10:34:44;100839.91;;;14.26;49.89
27304;BME280;14791;52.392;13.092;2023-12-28T10:37:16;100840.16;;;14.29;49.82
27304;BME280;14791;52.392;13.092;2023-12-28T10:39:51;100832.00;;;14.30;49.91
27304;BME280;14791;52.392;13.092;2023-12-28T10:42:31;100838.58;;;14.32;49.92
27304;BME280;14791;52.392;13.092;2023-12-28T10:45:04;100847.77;;;14.35;49.87
27304;BME280;14791;52.392;13.092;2023-12-28T10:47:42;100838.73;;;14.36;49.88
27304;BME280;14791;52.392;13.092;2023-12-28T10:50:06;100837.77;;;14.37;49.80
27304;BME280;14791;52.392;13.092;2023-12-28T10:52:36;100827.73;;;14.39;49.83
27304;BME280;14791;52.392;13.092;2023-12-28T10:55:40;100826.78;;;14.40;49.83
27304;BME280;14791;52.392;13.092;2023-12-28T10:58:18;100824.84;;;14.42;49.79
27304;BME280;14791;52.392;13.092;2023-12-28T11:00:49;100830.42;;;14.39;49.92
27304;BME280;14791;52.392;13.092;2023-12-28T11:03:22;100841.17;;;14.39;49.94
27304;BME280;14791;52.392;13.092;2023-12-28T11:05:51;100831.55;;;14.42;49.95
27304;BME280;14791;52.392;13.092;2023-12-28T11:08:21;100835.23;;;14.46;49.91
27304;BME280;14791;52.392;13.092;2023-12-28T11:10:51;100828.52;;;14.52;49.82
27304;BME280;14791;52.392;13.092;2023-12-28T11:13:20;100826.75;;;14.58;49.76
27304;BME280;14791;52.392;13.092;2023-12-28T11:15:50;100828.59;;;14.63;49.70
27304;BME280;14791;52.392;13.092;2023-12-28T11:18:20;100838.86;;;14.70;49.65
27304;BME280;14791;52.392;13.092;2023-12-28T11:20:51;100830.22;;;14.77;49.48
27304;BME280;14791;52.392;13.092;2023-12-28T11:23:21;100833.52;;;14.81;49.43
27304;BME280;14791;52.392;13.092;2023-12-28T11:25:50;100819.60;;;14.87;49.40
27304;BME280;14791;52.392;13.092;2023-12-28T11:28:19;100813.97;;;14.90;49.22
27304;BME280;14791;52.392;13.092;2023-12-28T11:30:48;100827.17;;;14.93;49.15
27304;BME280;14791;52.392;13.092;2023-12-28T11:33:18;100819.73;;;14.97;48.99
27304;BME280;14791;52.392;13.092;2023-12-28T11:35:48;100814.21;;;14.98;49.01
27304;BME280;14791;52.392;13.092;2023-12-28T11:38:17;100800.55;;;15.01;48.81
27304;BME280;14791;52.392;13.092;2023-12-28T11:40:48;100801.39;;;15.02;48.89
27304;BME280;14791;52.392;13.092;2023-12-28T11:43:21;100803.94;;;15.03;48.85
27304;BME280;14791;52.392;13.092;2023-12-28T11:45:59;100800.89;;;15.02;48.85
27304;BME280;14791;52.392;13.092;2023-12-28T11:48:24;100790.63;;;15.02;48.82
27304;BME280;14791;52.392;13.092;2023-12-28T11:50:59;100791.48;;;15.02;48.83
27304;BME280;14791;52.392;13.092;2023-12-28T11:53:28;100781.57;;;15.03;48.71
27304;BME280;14791;52.392;13.092;2023-12-28T11:56:00;100771.66;;;15.03;48.68
27304;BME280;14791;52.392;13.092;2023-12-28T11:58:30;100771.05;;;15.05;48.70
27304;BME280;14791;52.392;13.092;2023-12-28T12:01:00;100755.30;;;15.06;48.77
27304;BME280;14791;52.392;13.092;2023-12-28T12:03:29;100753.34;;;15.08;48.81
27304;BME280;14791;52.392;13.092;2023-12-28T12:05:58;100736.95;;;15.12;48.65
27304;BME280;14791;52.392;13.092;2023-12-28T12:08:27;100739.38;;;15.15;48.75
27304;BME280;14791;52.392;13.092;2023-12-28T12:11:04;100727.52;;;15.17;48.77
27304;BME280;14791;52.392;13.092;2023-12-28T12:13:34;100735.33;;;15.20;48.70
27304;BME280;14791;52.392;13.092;2023-12-28T12:16:05;100732.91;;;15.23;48.68
27304;BME280;14791;52.392;13.092;2023-12-28T12:18:36;100734.96;;;15.25;48.71
27304;BME280;14791;52.392;13.092;2023-12-28T12:21:06;100749.53;;;15.28;48.69
27304;BME280;14791;52.392;13.092;2023-12-28T12:23:35;100750.27;;;15.30;48.70
27304;BME280;14791;52.392;13.092;2023-12-28T12:26:06;100750.02;;;15.33;48.61
27304;BME280;14791;52.392;13.092;2023-12-28T12:28:36;100745.83;;;15.35;48.53
27304;BME280;14791;52.392;13.092;2023-12-28T12:31:05;100751.95;;;15.37;48.56
27304;BME280;14791;52.392;13.092;2023-12-28T12:33:36;100744.75;;;15.37;48.58
27304;BME280;14791;52.392;13.092;2023-12-28T12:36:07;100747.19;;;15.40;48.57
27304;BME280;14791;52.392;13.092;2023-12-28T12:38:36;100746.92;;;15.43;48.48
27304;BME280;14791;52.392;13.092;2023-12-28T12:41:05;100758.08;;;15.44;48.52
27304;BME280;14791;52.392;13.092;2023-12-28T12:43:35;100747.39;;;15.48;48.41
27304;BME280;14791;52.392;13.092;2023-12-28T12:46:04;100747.39;;;15.48;48.36
27304;BME280;14791;52.392;13.092;2023-12-28T12:48:33;100760.62;;;15.51;48.30
27304;BME280;14791;52.392;13.092;2023-12-28T12:51:03;100751.55;;;15.52;48.29
27304;BME280;14791;52.392;13.092;2023-12-28T12:53:33;100756.83;;;15.54;48.31
27304;BME280;14791;52.392;13.092;2023-12-28T12:56:04;100751.30;;;15.56;48.19